Time;durP1;ratioP1;P1;durP2;ratioP2;P2;SDS_P1;SDS_P2;PMS_P1;PMS_P2;Temp;Humidity;BMP_temperature;BMP_pressure;BME280_temperature;BME280_humidity;BME280_pressure;Samples;Min_cycle;Max_cycle;Signal;HPM_P1;HPM_P2
2021/09/03 00:00:08;;;;;;;5.80;2.50;;;;;;;19.47;83.03;101819.03;5023260;28;20416;-74
2021/09/03 00:02:35;;;;;;;5.10;2.53;;;;;;;19.47;83.00;101825.22;5012698;28;20406;-74
2021/09/03 00:05:00;;;;;;;5.67;2.47;;;;;;;19.48;83.65;101826.91;5019809;28;20455;-73
2021/09/03 00:07:26;;;;;;;6.93;2.63;;;;;;;19.54;83.18;101822.88;5023742;28;20412;-74
2021/09/03 00:09:51;;;;;;;5.70;2.60;;;;;;;19.45;85.88;101829.00;5020243;28;20223;-73
2021/09/03 00:12:17;;;;;;;6.20;2.80;;;;;;;19.57;84.31;101826.16;5021847;28;20734;-75
2021/09/03 00:14:42;;;;;;;5.83;2.53;;;;;;;19.49;84.94;101833.91;5023348;28;20159;-74
2021/09/03 00:17:08;;;;;;;5.10;2.50;;;;;;;19.56;85.41;101840.41;5021326;28;20179;-73
2021/09/03 00:19:33;;;;;;;4.50;2.20;;;;;;;19.40;85.62;101832.06;5027579;28;20182;-74
2021/09/03 00:21:59;;;;;;;4.60;2.23;;;;;;;19.36;86.98;101834.16;5027695;28;20153;-74
2021/09/03 00:24:24;;;;;;;9.93;2.50;;;;;;;19.23;87.98;101838.00;5034711;28;20687;-74
2021/09/03 00:26:50;;;;;;;6.33;2.90;;;;;;;19.17;89.09;101844.69;5027852;28;20209;-76
2021/09/03 00:29:16;;;;;;;4.40;2.50;;;;;;;19.16;88.57;101837.69;5031637;28;20216;-74
2021/09/03 00:31:41;;;;;;;4.80;2.70;;;;;;;19.12;89.99;101831.78;5032791;28;20188;-74
2021/09/03 00:34:07;;;;;;;6.17;2.90;;;;;;;19.15;90.41;101841.34;5026541;28;20413;-75
2021/09/03 00:36:32;;;;;;;6.13;2.40;;;;;;;19.15;90.16;101829.84;5012432;28;20652;-76
2021/09/03 00:38:58;;;;;;;4.80;2.50;;;;;;;19.12;90.98;101837.13;5024828;28;20567;-75
2021/09/03 00:41:23;;;;;;;6.63;2.43;;;;;;;19.05;91.61;101827.13;5022914;28;20165;-74
2021/09/03 00:43:49;;;;;;;5.57;3.20;;;;;;;19.01;92.16;101829.19;5042315;28;20612;-74
2021/09/03 00:46:15;;;;;;;8.63;2.60;;;;;;;18.94;93.64;101836.00;5041655;28;20170;-75
2021/09/03 00:48:40;;;;;;;7.30;3.30;;;;;;;18.90;94.24;101839.91;5023232;28;20208;-75
2021/09/03 00:51:06;;;;;;;6.50;2.90;;;;;;;18.87;94.30;101826.84;5015568;28;21128;-74
2021/09/03 00:53:34;;;;;;;6.50;2.37;;;;;;;18.79;95.49;101823.97;5017030;28;20538;-73
2021/09/03 00:56:01;;;;;;;9.50;3.53;;;;;;;18.79;95.96;101829.31;5020673;28;20467;-74
2021/09/03 00:58:27;;;;;;;5.50;2.80;;;;;;;18.82;95.75;101823.75;5025897;28;20489;-75
2021/09/03 01:00:52;;;;;;;5.77;2.57;;;;;;;18.70;96.60;101820.28;5012019;28;20437;-74
2021/09/03 01:03:18;;;;;;;5.73;2.90;;;;;;;18.71;98.25;101823.78;5030009;28;20405;-75
2021/09/03 01:05:44;;;;;;;12.50;3.50;;;;;;;18.79;96.69;101824.81;5031123;28;20161;-75
2021/09/03 01:08:10;;;;;;;6.23;2.37;;;;;;;18.82;95.81;101803.28;5025960;28;20426;-74
2021/09/03 01:10:36;;;;;;;5.53;2.70;;;;;;;18.74;95.90;101811.06;5015717;28;20858;-75
2021/09/03 01:13:02;;;;;;;9.50;2.90;;;;;;;18.60;97.40;101806.03;5017262;28;20443;-74
2021/09/03 01:15:28;;;;;;;8.50;2.90;;;;;;;18.58;97.80;101811.44;5011409;28;20526;-75
2021/09/03 01:17:53;;;;;;;5.37;2.57;;;;;;;18.55;98.09;101805.56;5014069;28;20252;-74
2021/09/03 01:20:20;;;;;;;7.70;3.00;;;;;;;18.51;98.10;101796.13;5029154;28;20423;-74
2021/09/03 01:22:45;;;;;;;6.93;2.50;;;;;;;18.44;98.77;101795.81;5024923;28;20296;-75
2021/09/03 01:25:12;;;;;;;5.23;2.23;;;;;;;18.47;98.95;101800.88;5014521;28;20506;-75
2021/09/03 01:27:40;;;;;;;10.70;3.27;;;;;;;18.40;99.04;101796.19;5015424;28;20252;-75
2021/09/03 01:30:10;;;;;;;7.33;2.70;;;;;;;18.34;99.92;101794.88;5026890;28;20476;-74
2021/09/03 01:32:37;;;;;;;7.67;4.00;;;;;;;18.37;99.93;101797.28;5025430;28;20942;-74
2021/09/03 01:35:02;;;;;;;7.07;2.63;;;;;;;18.34;99.52;101792.19;5021395;28;20522;-73
2021/09/03 01:37:28;;;;;;;19.43;3.80;;;;;;;18.26;98.94;101797.31;5027972;28;20511;-74
2021/09/03 01:39:53;;;;;;;6.10;2.60;;;;;;;18.15;100.00;101792.03;5030637;28;20162;-75
2021/09/03 01:42:19;;;;;;;5.10;2.50;;;;;;;18.10;100.00;101792.41;5024152;28;20182;-75
2021/09/03 01:44:44;;;;;;;6.93;2.67;;;;;;;18.08;100.00;101796.16;5011008;28;20655;-77
2021/09/03 01:47:10;;;;;;;8.03;2.47;;;;;;;18.05;100.00;101796.41;5010443;28;20173;-73
2021/09/03 01:49:35;;;;;;;12.40;3.53;;;;;;;18.08;100.00;101798.84;5009384;28;20205;-75
2021/09/03 01:52:01;;;;;;;7.70;2.13;;;;;;;18.04;100.00;101811.50;5022153;28;20233;-75
2021/09/03 01:54:26;;;;;;;5.50;2.83;;;;;;;18.07;100.00;101797.16;5017818;28;20177;-76
2021/09/03 01:56:52;;;;;;;5.27;2.70;;;;;;;18.10;100.00;101802.19;5014307;28;20173;-74
2021/09/03 01:59:17;;;;;;;6.47;2.40;;;;;;;18.05;100.00;101794.59;5016142;28;20178;-74
2021/09/03 02:01:43;;;;;;;6.87;2.47;;;;;;;17.99;100.00;101798.63;5022536;28;20174;-73
2021/09/03 02:04:08;;;;;;;6.20;2.43;;;;;;;17.94;100.00;101808.75;5019757;28;20266;-75
2021/09/03 02:06:34;;;;;;;7.27;2.60;;;;;;;17.95;100.00;101801.63;5015972;28;20557;-74
2021/09/03 02:08:59;;;;;;;8.50;2.73;;;;;;;17.94;100.00;101807.94;5012923;28;20239;-74
2021/09/03 02:11:25;;;;;;;8.83;3.00;;;;;;;17.86;100.00;101819.19;5023390;28;20247;-74
2021/09/03 02:13:50;;;;;;;8.77;3.10;;;;;;;17.86;100.00;101818.34;5013725;28;20683;-76
2021/09/03 02:16:16;;;;;;;10.33;2.80;;;;;;;17.80;100.00;101808.19;5027441;28;20177;-73
2021/09/03 02:18:41;;;;;;;15.93;3.37;;;;;;;17.84;100.00;101813.16;5020264;28;20209;-75
2021/09/03 02:21:07;;;;;;;4.93;2.50;;;;;;;17.83;100.00;101814.09;5021299;28;20520;-73
2021/09/03 02:23:32;;;;;;;9.77;3.23;;;;;;;17.77;100.00;101817.25;5020212;28;20201;-73
2021/09/03 02:25:59;;;;;;;6.80;2.80;;;;;;;17.75;100.00;101819.16;5017548;28;20609;-75
2021/09/03 02:28:24;;;;;;;7.67;3.30;;;;;;;17.76;100.00;101823.56;5016121;28;20215;-74
2021/09/03 02:30:50;;;;;;;6.90;2.73;;;;;;;17.71;100.00;101823.06;5031746;28;20504;-74
2021/09/03 02:33:16;;;;;;;6.43;3.07;;;;;;;17.68;100.00;101829.44;5019438;28;20216;-74
2021/09/03 02:35:43;;;;;;;8.00;2.53;;;;;;;17.70;100.00;101834.63;5025911;28;20173;-74
2021/09/03 02:38:09;;;;;;;6.63;2.67;;;;;;;17.72;100.00;101840.69;5034181;28;20434;-72
2021/09/03 02:40:35;;;;;;;4.90;2.63;;;;;;;17.65;100.00;101832.31;5026378;28;21093;-74
2021/09/03 02:43:01;;;;;;;7.23;2.90;;;;;;;17.59;100.00;101831.97;5021264;28;20424;-76
2021/09/03 02:45:27;;;;;;;6.73;2.57;;;;;;;17.56;100.00;101830.41;5033968;28;20650;-74
2021/09/03 02:47:53;;;;;;;5.63;2.60;;;;;;;17.54;100.00;101845.63;5018595;28;20452;-74
2021/09/03 02:50:18;;;;;;;7.33;2.60;;;;;;;17.55;100.00;101830.53;5029821;28;20593;-76
2021/09/03 02:52:44;;;;;;;5.50;2.40;;;;;;;17.50;100.00;101838.00;5017760;28;20170;-75
2021/09/03 02:55:09;;;;;;;8.63;2.93;;;;;;;17.45;100.00;101844.50;5013544;28;20162;-75
2021/09/03 02:57:35;;;;;;;6.10;2.60;;;;;;;17.47;100.00;101837.28;5013656;28;20178;-75
2021/09/03 03:00:01;;;;;;;6.40;2.67;;;;;;;17.44;100.00;101857.91;5010289;28;20596;-76
2021/09/03 03:02:27;;;;;;;7.97;2.87;;;;;;;17.48;100.00;101856.72;5012870;28;20175;-75
2021/09/03 03:04:53;;;;;;;10.47;2.83;;;;;;;17.42;100.00;101857.22;5023468;28;20253;-74
2021/09/03 03:07:18;;;;;;;7.50;3.10;;;;;;;17.36;100.00;101873.63;5021025;28;20790;-74
2021/09/03 03:09:45;;;;;;;8.13;2.50;;;;;;;17.37;100.00;101868.19;5029463;28;20221;-75
2021/09/03 03:12:11;;;;;;;9.70;2.50;;;;;;;17.31;100.00;101875.81;5031895;28;20227;-76
2021/09/03 03:14:37;;;;;;;8.80;2.80;;;;;;;17.27;100.00;101880.50;5033434;28;20836;-75
2021/09/03 03:17:03;;;;;;;5.80;2.33;;;;;;;17.26;100.00;101881.47;5026726;28;20158;-76
2021/09/03 03:19:29;;;;;;;5.07;2.50;;;;;;;17.14;100.00;101874.41;5032665;28;20470;-75
2021/09/03 03:21:57;;;;;;;6.10;2.90;;;;;;;17.04;100.00;101886.72;5031822;28;20769;-75
2021/09/03 03:24:23;;;;;;;18.33;5.30;;;;;;;16.99;100.00;101895.00;5023687;28;20937;-76
2021/09/03 03:26:49;;;;;;;6.67;2.83;;;;;;;17.04;100.00;101897.34;5025223;28;20464;-75
2021/09/03 03:29:15;;;;;;;5.43;2.70;;;;;;;17.09;100.00;101897.84;5025610;28;20881;-74
2021/09/03 03:31:40;;;;;;;5.53;2.23;;;;;;;17.09;100.00;101903.16;5017055;28;20194;-74
2021/09/03 03:34:06;;;;;;;7.27;3.23;;;;;;;17.10;100.00;101905.69;5029441;28;20256;-73
2021/09/03 03:36:32;;;;;;;5.93;2.63;;;;;;;17.05;100.00;101905.19;5032688;28;20628;-72
2021/09/03 03:38:57;;;;;;;5.53;3.00;;;;;;;17.09;100.00;101908.47;5032404;28;20236;-75
2021/09/03 03:41:23;;;;;;;6.17;2.50;;;;;;;17.08;100.00;101909.44;5018349;28;20174;-73
2021/09/03 03:43:48;;;;;;;5.87;2.93;;;;;;;17.06;100.00;101912.19;5012926;28;20637;-74
2021/09/03 03:46:14;;;;;;;6.83;2.83;;;;;;;17.02;100.00;101912.53;5028010;28;20241;-75
2021/09/03 03:48:40;;;;;;;6.30;3.30;;;;;;;17.00;100.00;101914.44;5022417;28;20186;-76
2021/09/03 03:51:05;;;;;;;9.30;3.10;;;;;;;17.03;100.00;101914.22;5027257;28;20169;-75
2021/09/03 03:53:31;;;;;;;11.00;3.00;;;;;;;17.01;100.00;101926.78;5012427;28;20537;-74
2021/09/03 03:55:57;;;;;;;7.77;3.27;;;;;;;17.00;100.00;101935.69;5011294;28;20683;-75
2021/09/03 03:58:22;;;;;;;7.07;3.47;;;;;;;17.04;100.00;101937.16;5016446;28;20162;-74
2021/09/03 04:00:48;;;;;;;8.30;3.10;;;;;;;16.99;100.00;101945.47;5014531;28;20539;-73
2021/09/03 04:03:13;;;;;;;7.13;3.13;;;;;;;16.92;100.00;101938.91;5024936;28;20158;-73
2021/09/03 04:05:39;;;;;;;8.30;4.20;;;;;;;16.90;100.00;101940.84;5010877;28;20265;-73
2021/09/03 04:08:05;;;;;;;8.10;2.93;;;;;;;16.83;100.00;101945.75;5015220;28;20228;-74
2021/09/03 04:10:30;;;;;;;7.03;2.90;;;;;;;16.82;100.00;101956.50;5030305;28;20566;-74
2021/09/03 04:12:56;;;;;;;7.80;3.30;;;;;;;16.85;100.00;101953.59;5031966;28;20827;-75
2021/09/03 04:15:21;;;;;;;8.13;2.50;;;;;;;16.70;100.00;101947.63;5027971;28;20200;-74
2021/09/03 04:17:47;;;;;;;7.43;2.50;;;;;;;16.84;100.00;101954.56;5032107;28;20162;-74
2021/09/03 04:20:13;;;;;;;13.47;3.43;;;;;;;16.84;100.00;101949.25;5030042;28;20632;-73
2021/09/03 04:22:38;;;;;;;14.03;4.03;;;;;;;16.96;100.00;101944.84;5016040;28;20174;-73
2021/09/03 04:25:06;;;;;;;7.10;3.33;;;;;;;17.03;100.00;101954.06;5020902;28;20164;-73
2021/09/03 04:27:33;;;;;;;9.60;3.70;;;;;;;17.08;100.00;101946.63;5020850;28;20755;-74
2021/09/03 04:29:58;;;;;;;8.67;3.10;;;;;;;17.13;100.00;101949.75;5011777;28;20492;-74
2021/09/03 04:32:24;;;;;;;10.67;3.60;;;;;;;17.10;100.00;101950.00;5013237;28;20500;-74
2021/09/03 04:34:49;;;;;;;13.50;5.30;;;;;;;17.19;100.00;101954.59;5009531;28;20166;-73
2021/09/03 04:37:15;;;;;;;6.00;3.00;;;;;;;17.21;100.00;101944.69;5010140;28;20202;-75
2021/09/03 04:39:41;;;;;;;5.97;3.10;;;;;;;17.14;100.00;101957.59;5026819;28;20173;-74
2021/09/03 04:42:06;;;;;;;6.80;3.37;;;;;;;17.24;100.00;101957.78;5031533;28;20158;-74
2021/09/03 04:44:32;;;;;;;6.63;3.10;;;;;;;17.23;100.00;101956.09;5022272;28;20914;-74
2021/09/03 04:46:58;;;;;;;9.03;3.40;;;;;;;17.32;100.00;101960.69;5010881;28;20170;-75
2021/09/03 04:49:23;;;;;;;9.77;2.93;;;;;;;17.36;100.00;101956.81;5013760;28;21009;-75
2021/09/03 04:51:49;;;;;;;5.73;2.73;;;;;;;17.29;100.00;101952.94;5028361;28;20185;-74
2021/09/03 04:54:14;;;;;;;7.40;3.60;;;;;;;17.34;100.00;101953.44;5027484;28;20251;-74
2021/09/03 04:56:40;;;;;;;7.00;2.63;;;;;;;17.32;100.00;101949.22;5022032;28;20679;-73
2021/09/03 04:59:06;;;;;;;6.07;3.00;;;;;;;17.27;100.00;101948.72;5011378;28;20174;-73
2021/09/03 05:01:31;;;;;;;9.33;3.00;;;;;;;17.33;100.00;101954.41;5029409;28;20203;-74
2021/09/03 05:03:57;;;;;;;10.53;4.13;;;;;;;17.29;100.00;101952.94;5028194;28;20182;-73
2021/09/03 05:06:22;;;;;;;6.60;3.43;;;;;;;17.36;100.00;101959.47;5018930;28;20177;-74
2021/09/03 05:08:48;;;;;;;7.10;3.60;;;;;;;17.39;100.00;101964.59;5025656;28;20209;-74
2021/09/03 05:11:14;;;;;;;5.70;2.70;;;;;;;17.55;100.00;101966.06;5015928;28;20192;-74
2021/09/03 05:13:39;;;;;;;5.33;3.20;;;;;;;17.51;100.00;101975.22;5016917;28;20636;-75
2021/09/03 05:16:05;;;;;;;6.43;2.90;;;;;;;17.49;100.00;101975.34;5028650;28;20723;-75
2021/09/03 05:18:30;;;;;;;6.53;3.10;;;;;;;17.61;100.00;101985.06;5028666;28;20188;-73
2021/09/03 05:20:56;;;;;;;6.60;4.10;;;;;;;17.64;100.00;101983.97;5015974;28;20651;-74
2021/09/03 05:23:22;;;;;;;7.07;2.87;;;;;;;17.64;100.00;101983.97;5014015;28;20166;-75
2021/09/03 05:25:47;;;;;;;7.23;2.63;;;;;;;17.83;100.00;101984.25;5010439;28;20236;-75
2021/09/03 05:28:13;;;;;;;7.13;3.00;;;;;;;17.85;100.00;101987.66;5011055;28;20213;-77
2021/09/03 05:30:40;;;;;;;8.83;3.30;;;;;;;17.78;100.00;101986.44;5021121;28;20280;-74
2021/09/03 05:33:05;;;;;;;8.83;3.30;;;;;;;17.67;100.00;101983.72;5021713;28;20162;-77
2021/09/03 05:35:31;;;;;;;11.73;3.30;;;;;;;17.73;100.00;101976.16;5015650;28;20416;-74
2021/09/03 05:37:56;;;;;;;11.13;4.00;;;;;;;17.74;100.00;101975.19;5010602;28;20163;-75
2021/09/03 05:40:22;;;;;;;13.03;4.37;;;;;;;17.79;100.00;101972.19;5015958;28;20321;-74
2021/09/03 05:42:49;;;;;;;6.27;3.13;;;;;;;17.73;100.00;101977.97;5014298;28;20188;-74
2021/09/03 05:45:14;;;;;;;16.97;3.17;;;;;;;17.75;100.00;101976.88;5010385;28;20522;-75
2021/09/03 05:47:44;;;;;;;8.37;3.33;;;;;;;17.95;100.00;101980.66;5017383;28;20428;-76
2021/09/03 05:50:11;;;;;;;8.40;2.90;;;;;;;17.97;100.00;101975.22;5030118;28;20451;-77
2021/09/03 05:52:36;;;;;;;6.50;2.90;;;;;;;18.10;100.00;101975.94;5023019;28;20410;-75
2021/09/03 05:55:02;;;;;;;4.67;2.20;;;;;;;18.19;100.00;101967.25;5047985;28;20416;-75
2021/09/03 05:57:28;;;;;;;8.30;3.13;;;;;;;18.27;100.00;101977.28;5026848;28;20684;-75
2021/09/03 05:59:53;;;;;;;7.13;2.83;;;;;;;18.28;100.00;101982.47;5015799;28;20162;-74
2021/09/03 06:02:19;;;;;;;8.40;3.60;;;;;;;18.32;100.00;101980.44;5029984;28;20268;-76
2021/09/03 06:04:44;;;;;;;6.97;2.57;;;;;;;18.41;100.00;101978.84;5030515;28;20170;-74
2021/09/03 06:07:10;;;;;;;10.80;2.93;;;;;;;18.61;100.00;101986.06;5031722;28;20248;-75
2021/09/03 06:09:35;;;;;;;5.93;2.60;;;;;;;18.87;100.00;101993.78;5031828;28;20209;-74
2021/09/03 06:12:01;;;;;;;9.93;2.97;;;;;;;19.19;100.00;101989.31;5033736;28;20158;-77
2021/09/03 06:14:26;;;;;;;10.33;2.47;;;;;;;19.51;95.53;101986.63;5029481;28;20177;-76
2021/09/03 06:16:52;;;;;;;7.40;2.70;;;;;;;19.73;90.24;101991.00;5034047;28;20173;-76
2021/09/03 06:19:17;;;;;;;4.93;2.00;;;;;;;19.81;76.13;101977.03;5033765;28;20181;-74
2021/09/03 06:21:43;;;;;;;9.83;2.37;;;;;;;19.82;76.66;101994.72;5033324;28;20239;-73
2021/09/03 06:26:53;;;;;;;4.40;2.10;;;;;;;20.13;69.82;101983.06;5049243;28;20260;-75
2021/09/03 06:32:23;;;;;;;4.93;2.03;;;;;;;20.55;68.21;101985.63;5042398;28;20411;-74
2021/09/03 06:35:03;;;;;;;8.90;2.40;;;;;;;20.73;69.46;101992.00;5033615;28;20518;-73
2021/09/03 06:37:31;;;;;;;6.20;1.97;;;;;;;20.75;70.76;101989.19;5033739;28;20902;-75
2021/09/03 06:39:57;;;;;;;7.23;2.20;;;;;;;20.91;71.51;101985.97;5033750;28;20409;-74
2021/09/03 06:42:23;;;;;;;4.73;2.00;;;;;;;20.82;68.57;101984.13;5043158;28;20446;-73
2021/09/03 06:44:50;;;;;;;7.37;2.33;;;;;;;20.81;67.94;101980.63;5053246;28;20403;-75
2021/09/03 06:47:16;;;;;;;9.10;2.30;;;;;;;20.75;67.71;101987.34;5050402;28;20407;-73
2021/09/03 06:49:42;;;;;;;6.43;2.43;;;;;;;20.89;67.36;101990.63;5043706;28;20488;-74
2021/09/03 06:52:09;;;;;;;7.10;2.57;;;;;;;20.68;67.72;101980.03;5030592;28;20416;-78
2021/09/03 06:54:35;;;;;;;8.30;2.03;;;;;;;20.45;61.53;101979.41;5021436;28;20418;-75
2021/09/03 06:57:01;;;;;;;6.30;2.77;;;;;;;20.44;61.41;101980.41;5024238;28;20491;-74
2021/09/03 06:59:27;;;;;;;5.23;2.50;;;;;;;20.56;60.77;101984.66;5012986;28;20604;-76
2021/09/03 07:01:57;;;;;;;5.50;2.13;;;;;;;20.74;61.97;101985.66;5013616;28;20225;-76
2021/09/03 07:04:23;;;;;;;9.50;2.30;;;;;;;20.85;62.11;101989.19;5038464;28;20438;-76
2021/09/03 07:06:52;;;;;;;6.53;3.07;;;;;;;20.86;60.20;101994.41;5034020;28;20451;-74
2021/09/03 07:09:18;;;;;;;4.07;2.00;;;;;;;21.02;59.93;101992.03;5031505;28;20985;-75
2021/09/03 07:11:43;;;;;;;9.03;2.70;;;;;;;21.17;60.01;101995.16;5032769;28;20405;-74
2021/09/03 07:14:09;;;;;;;10.33;2.50;;;;;;;21.37;59.31;102000.50;5032607;28;20799;-76
2021/09/03 07:16:34;;;;;;;7.60;3.20;;;;;;;21.39;59.06;101995.88;5031547;28;20170;-74
2021/09/03 07:19:03;;;;;;;5.33;2.40;;;;;;;21.23;58.26;101999.91;5032818;28;20214;-75
2021/09/03 07:21:33;;;;;;;6.90;2.33;;;;;;;21.34;58.51;102001.63;5042212;28;20165;-76
2021/09/03 07:23:59;;;;;;;4.80;2.10;;;;;;;21.45;60.47;102001.47;5034125;28;20412;-74
2021/09/03 07:26:25;;;;;;;3.70;1.70;;;;;;;21.57;63.36;102015.56;5032150;28;20413;-75
2021/09/03 07:28:51;;;;;;;5.40;2.00;;;;;;;21.70;62.99;102009.91;5032233;28;20781;-76
2021/09/03 07:31:17;;;;;;;6.73;1.63;;;;;;;21.85;63.17;102003.97;5032954;28;20405;-75
2021/09/03 07:33:43;;;;;;;7.13;2.10;;;;;;;21.93;63.43;102002.38;5032344;28;20170;-76
2021/09/03 07:36:08;;;;;;;5.50;1.97;;;;;;;21.86;64.77;102008.31;5032615;28;20462;-75
2021/09/03 07:38:34;;;;;;;6.07;2.13;;;;;;;21.78;66.19;102013.56;5031335;28;20189;-75
2021/09/03 07:41:00;;;;;;;6.00;2.73;;;;;;;21.78;65.33;101999.34;5031453;28;20161;-75
2021/09/03 07:43:25;;;;;;;10.60;4.03;;;;;;;21.79;65.54;102004.53;5049959;28;20204;-74
2021/09/03 07:45:52;;;;;;;5.90;2.30;;;;;;;21.86;64.31;102005.66;5051969;28;20252;-74
2021/09/03 07:48:18;;;;;;;3.93;1.73;;;;;;;21.82;65.46;102011.41;5037095;28;20204;-75
2021/09/03 07:50:43;;;;;;;8.67;2.10;;;;;;;21.84;65.45;101999.59;5023682;28;20492;-73
2021/09/03 07:53:11;;;;;;;4.40;2.07;;;;;;;22.04;65.68;102003.03;5018649;28;20171;-74
2021/09/03 07:55:37;;;;;;;5.83;2.00;;;;;;;22.21;66.47;102003.28;5017194;28;20672;-75
2021/09/03 07:58:04;;;;;;;8.87;2.77;;;;;;;22.34;66.40;102003.81;5017386;28;20434;-75
2021/09/03 08:00:30;;;;;;;6.30;2.40;;;;;;;22.34;63.84;102001.13;5025834;28;20424;-79
2021/09/03 08:02:55;;;;;;;4.30;1.83;;;;;;;22.33;63.04;101988.72;5023712;28;20800;-74
2021/09/03 08:05:21;;;;;;;4.97;2.23;;;;;;;22.39;64.19;101990.81;5012170;28;20663;-75
2021/09/03 08:07:46;;;;;;;7.40;1.90;;;;;;;22.51;62.79;101991.44;5023872;28;20251;-76
2021/09/03 08:10:14;;;;;;;5.73;1.80;;;;;;;22.67;62.86;101991.63;5032412;28;20200;-77
2021/09/03 08:12:40;;;;;;;4.13;1.90;;;;;;;22.67;62.25;101983.59;5026030;28;20791;-74
2021/09/03 08:15:08;;;;;;;4.70;1.70;;;;;;;22.59;61.74;101981.66;5021460;28;20421;-76
2021/09/03 08:17:34;;;;;;;8.17;2.43;;;;;;;22.60;62.54;101974.50;5013749;28;20802;-71
2021/09/03 08:20:05;;;;;;;7.33;1.80;;;;;;;22.40;62.03;101974.59;5018009;28;20405;-77
2021/09/03 08:22:31;;;;;;;6.37;2.23;;;;;;;22.53;63.31;101981.44;5015350;28;20413;-76
2021/09/03 08:24:58;;;;;;;7.40;2.03;;;;;;;22.55;62.67;101971.41;5011803;28;20421;-77
2021/09/03 08:27:25;;;;;;;8.03;2.97;;;;;;;22.53;63.73;101968.03;5012514;28;20579;-76
2021/09/03 08:29:51;;;;;;;5.83;2.40;;;;;;;22.79;63.18;101966.31;5023688;28;20457;-74
2021/09/03 08:32:17;;;;;;;8.03;2.60;;;;;;;23.02;61.72;101965.88;5014177;28;20425;-75
2021/09/03 08:34:43;;;;;;;6.70;3.00;;;;;;;23.06;60.90;101970.81;5010325;28;20597;-76
2021/09/03 08:37:09;;;;;;;13.97;2.97;;;;;;;22.97;61.25;101977.06;5011617;28;20393;-77
2021/09/03 08:39:35;;;;;;;4.50;1.90;;;;;;;22.90;60.98;101963.44;5010702;28;20409;-74
2021/09/03 08:42:01;;;;;;;6.47;1.60;;;;;;;22.76;62.72;101958.59;5011850;28;20402;-76
2021/09/03 08:44:31;;;;;;;9.33;3.30;;;;;;;22.63;61.60;101953.59;5021459;28;20953;-74
2021/09/03 08:46:57;;;;;;;15.03;2.40;;;;;;;22.68;60.26;101964.69;5015971;28;20712;-76
2021/09/03 08:49:23;;;;;;;7.70;2.53;;;;;;;22.69;61.69;101960.19;5024566;28;20446;-76
2021/09/03 08:51:49;;;;;;;5.20;1.90;;;;;;;22.74;61.21;101959.72;5030800;28;20903;-75
2021/09/03 08:54:14;;;;;;;5.87;2.17;;;;;;;22.86;61.31;101956.69;5029259;28;20429;-79
2021/09/03 08:56:40;;;;;;;9.90;2.30;;;;;;;22.97;61.69;101952.94;5020538;28;20209;-74
2021/09/03 08:59:06;;;;;;;5.20;2.33;;;;;;;22.97;61.64;101964.53;5023340;28;20177;-74
2021/09/03 09:01:32;;;;;;;9.90;2.60;;;;;;;23.07;60.55;101955.56;5028128;28;20248;-75
2021/09/03 09:04:09;;;;;;;4.83;2.50;;;;;;;23.07;60.50;101953.72;5027882;28;20174;-74
2021/09/03 09:06:35;;;;;;;4.50;2.17;;;;;;;23.04;60.31;101959.38;5023927;28;20416;-75
2021/09/03 09:09:08;;;;;;;5.33;2.70;;;;;;;23.18;60.10;101952.63;5017932;28;20507;-73
2021/09/03 09:11:36;;;;;;;7.23;2.20;;;;;;;23.03;58.70;101948.78;5014364;28;20242;-76
2021/09/03 09:14:08;;;;;;;5.40;2.30;;;;;;;23.18;58.34;101945.41;5025684;28;20861;-77
2021/09/03 09:16:34;;;;;;;5.67;2.37;;;;;;;23.00;58.68;101941.91;5025756;28;20424;-76
2021/09/03 09:19:01;;;;;;;4.87;2.20;;;;;;;22.99;59.36;101950.97;5010938;28;20634;-76
2021/09/03 09:21:35;;;;;;;5.20;2.50;;;;;;;23.17;59.49;101950.94;5020304;28;20939;-75
2021/09/03 09:24:15;;;;;;;6.07;2.30;;;;;;;23.38;58.96;101950.59;5011536;28;20476;-75
2021/09/03 09:26:47;;;;;;;10.77;3.03;;;;;;;23.53;57.00;101939.13;5009453;28;20460;-75
2021/09/03 09:29:16;;;;;;;13.60;2.40;;;;;;;23.59;57.08;101926.09;5012377;28;20449;-75
2021/09/03 09:31:42;;;;;;;4.50;1.90;;;;;;;23.64;56.96;101916.59;5016602;28;20776;-73
2021/09/03 09:34:22;;;;;;;11.73;3.03;;;;;;;23.48;58.00;101927.19;5019151;28;20467;-75
2021/09/03 09:36:54;;;;;;;5.10;2.17;;;;;;;23.45;58.18;101923.00;5027797;28;20768;-75
2021/09/03 09:39:24;;;;;;;9.23;3.10;;;;;;;23.45;59.68;101923.00;5024163;28;21323;-75
2021/09/03 09:42:00;;;;;;;5.77;2.50;;;;;;;23.50;58.32;101920.69;5019145;28;20420;-75
2021/09/03 09:44:30;;;;;;;6.47;2.20;;;;;;;23.47;59.32;101918.28;5022512;28;20416;-77
2021/09/03 09:47:07;;;;;;;4.53;2.10;;;;;;;23.54;60.38;101916.66;5027745;28;20397;-75
2021/09/03 09:49:34;;;;;;;6.83;2.60;;;;;;;23.64;60.55;101913.91;5008898;28;20468;-74
2021/09/03 09:52:00;;;;;;;5.70;2.73;;;;;;;23.65;59.64;101902.16;5023805;28;20445;-78
2021/09/03 09:54:26;;;;;;;4.97;2.30;;;;;;;23.74;59.77;101890.50;5030053;28;20404;-78
2021/09/03 09:57:03;;;;;;;6.40;2.60;;;;;;;23.68;59.85;101898.34;5018332;28;20205;-75
2021/09/03 09:59:31;;;;;;;7.43;2.47;;;;;;;23.67;60.59;101889.44;5030137;28;20439;-79
2021/09/03 10:01:59;;;;;;;5.57;1.97;;;;;;;23.67;60.92;101896.66;5027062;28;20420;-78
2021/09/03 10:04:29;;;;;;;5.50;2.60;;;;;;;23.78;60.20;101891.00;5019621;28;20444;-75
2021/09/03 10:06:59;;;;;;;6.27;3.60;;;;;;;23.86;59.31;101896.41;5010370;28;20418;-75
2021/09/03 10:09:26;;;;;;;6.00;2.50;;;;;;;23.88;58.72;101888.19;5010077;28;20503;-74
2021/09/03 10:11:54;;;;;;;6.60;3.07;;;;;;;23.94;58.33;101883.00;5009162;28;20500;-75
2021/09/03 10:14:23;;;;;;;6.10;3.20;;;;;;;24.05;59.40;101887.25;5029637;28;20404;-76
2021/09/03 10:16:50;;;;;;;6.00;2.70;;;;;;;24.16;58.82;101884.25;5021432;28;20421;-75
2021/09/03 10:19:22;;;;;;;8.73;2.77;;;;;;;24.42;57.73;101878.00;5029326;28;20404;-75
2021/09/03 10:21:47;;;;;;;4.63;2.57;;;;;;;24.80;57.34;101877.34;5021103;28;20524;-77
2021/09/03 10:24:15;;;;;;;9.43;2.50;;;;;;;25.09;56.09;101881.38;5028602;28;20408;-77
2021/09/03 10:26:47;;;;;;;7.33;3.80;;;;;;;25.30;54.95;101872.78;5029382;28;20650;-77
2021/09/03 10:29:17;;;;;;;5.40;2.50;;;;;;;25.61;53.57;101871.03;5025266;28;20503;-76
2021/09/03 10:32:06;;;;;;;4.53;2.37;;;;;;;25.62;53.80;101867.34;5009192;28;20413;-73
2021/09/03 10:34:41;;;;;;;7.00;2.90;;;;;;;25.81;54.22;101866.09;5009647;28;20456;-75
2021/09/03 10:37:12;;;;;;;6.70;2.57;;;;;;;25.47;55.14;101871.75;5021858;28;20426;-76
2021/09/03 10:40:02;;;;;;;5.33;2.30;;;;;;;25.36;55.58;101881.03;5026941;28;20436;-77
2021/09/03 10:42:34;;;;;;;6.20;2.40;;;;;;;25.66;54.66;101874.03;5025787;28;20444;-71
2021/09/03 10:45:09;;;;;;;4.77;2.30;;;;;;;25.99;53.53;101868.53;5014223;28;20413;-75
2021/09/03 10:47:35;;;;;;;7.37;3.37;;;;;;;26.13;53.26;101867.81;5023039;28;20416;-79
2021/09/03 10:50:10;;;;;;;6.53;2.67;;;;;;;26.69;53.26;101871.19;5019872;28;20455;-77
2021/09/03 10:52:35;;;;;;;4.70;2.27;;;;;;;27.78;51.70;101858.13;5022609;28;20942;-76
2021/09/03 10:55:01;;;;;;;5.03;2.40;;;;;;;29.06;49.18;101839.31;5032760;28;20404;-78
2021/09/03 10:57:27;;;;;;;6.20;2.40;;;;;;;30.76;46.34;101825.81;5026551;28;20200;-81
2021/09/03 11:00:17;;;;;;;5.90;2.83;;;;;;;31.64;44.29;101820.81;5033359;28;20206;-79
2021/09/03 11:02:43;;;;;;;5.63;2.93;;;;;;;31.93;43.78;101826.78;5028988;28;20605;-81
2021/09/03 11:05:14;;;;;;;4.70;2.10;;;;;;;32.28;42.07;101821.78;5033742;28;20469;-82
2021/09/03 11:07:44;;;;;;;7.63;2.63;;;;;;;33.38;40.95;101820.19;5013589;28;20218;-76
2021/09/03 11:10:21;;;;;;;5.57;2.67;;;;;;;33.63;39.94;101806.47;5012048;28;20543;-81
2021/09/03 11:12:50;;;;;;;5.33;2.70;;;;;;;33.84;40.23;101810.59;5014179;28;20760;-80
2021/09/03 11:15:16;;;;;;;6.00;2.90;;;;;;;32.73;40.95;101813.50;5014042;28;20910;-77
2021/09/03 11:17:42;;;;;;;5.10;2.80;;;;;;;31.69;41.82;101812.84;5018209;28;20411;-76
2021/09/03 11:20:08;;;;;;;11.33;2.80;;;;;;;30.86;41.71;101809.09;5039013;28;20184;-74
2021/09/03 11:22:36;;;;;;;9.37;2.40;;;;;;;29.96;43.12;101810.41;5019337;28;20942;-76
2021/09/03 11:25:04;;;;;;;6.10;3.33;;;;;;;29.22;43.91;101816.50;5023456;28;20410;-77